createdAt,value
2023-04-21T00:01:50.681Z,71.10
2023-04-21T00:04:18.024Z,71.10
2023-04-21T00:06:45.767Z,71.00
2023-04-21T00:09:12.660Z,70.90
2023-04-21T00:11:39.661Z,71.20
2023-04-21T00:14:06.758Z,71.00
2023-04-21T00:16:33.921Z,71.00
2023-04-21T00:19:00.984Z,71.00
2023-04-21T00:21:28.166Z,71.30
2023-04-21T00:23:55.098Z,71.40
2023-04-21T00:26:22.100Z,71.50
2023-04-21T00:28:50.654Z,71.60
2023-04-21T00:31:17.658Z,71.70
2023-04-21T00:33:44.522Z,71.90
2023-04-21T00:36:11.503Z,72.10
2023-04-21T00:38:38.306Z,72.10
2023-04-21T00:41:05.269Z,72.20
2023-04-21T00:43:32.161Z,72.10
2023-04-21T00:45:59.101Z,72.00
2023-04-21T00:48:25.970Z,72.10
2023-04-21T00:50:52.954Z,72.00
2023-04-21T00:53:20.868Z,72.30
2023-04-21T00:55:47.870Z,72.20
2023-04-21T00:58:14.864Z,72.00
2023-04-21T01:00:43.010Z,71.90
2023-04-21T01:03:10.277Z,71.70
2023-04-21T01:05:37.376Z,72.50
2023-04-21T01:08:06.371Z,71.80
2023-04-21T01:10:33.708Z,72.00
2023-04-21T01:13:00.656Z,71.90
2023-04-21T01:15:30.959Z,71.90
2023-04-21T01:17:58.675Z,72.00
2023-04-21T01:20:25.765Z,71.70
2023-04-21T01:22:52.758Z,71.80
2023-04-21T01:25:22.528Z,71.90
2023-04-21T01:27:49.446Z,72.30
2023-04-21T01:30:16.630Z,72.30
2023-04-21T01:32:43.925Z,72.20
2023-04-21T01:35:11.132Z,72.50
2023-04-21T01:37:39.274Z,72.50
2023-04-21T01:40:09.262Z,72.60
2023-04-21T01:42:40.838Z,72.70
2023-04-21T01:45:08.315Z,72.90
2023-04-21T01:47:36.997Z,73.00
2023-04-21T01:50:04.802Z,72.80
2023-04-21T01:52:31.715Z,72.80
2023-04-21T01:54:58.773Z,72.70
2023-04-21T01:57:25.683Z,72.70
2023-04-21T01:59:53.191Z,72.80
2023-04-21T02:02:21.851Z,72.80
2023-04-21T02:04:51.085Z,73.00
2023-04-21T02:07:17.904Z,73.20
2023-04-21T02:09:44.905Z,73.00
2023-04-21T02:12:12.550Z,73.10
2023-04-21T02:14:42.561Z,73.10
2023-04-21T02:17:09.568Z,72.90
2023-04-21T02:22:39.091Z,73.00
2023-04-21T02:25:06.694Z,72.90
2023-04-21T02:27:33.693Z,73.10
2023-04-21T02:30:01.047Z,72.80
2023-04-21T02:32:28.464Z,73.10
2023-04-21T02:34:55.893Z,73.30
2023-04-21T02:37:24.245Z,73.50
2023-04-21T02:39:53.762Z,73.60
2023-04-21T02:42:20.764Z,73.80
2023-04-21T02:44:48.324Z,74.30
2023-04-21T02:47:16.763Z,73.20
2023-04-21T02:49:43.857Z,73.20
2023-04-21T02:52:12.591Z,73.50
2023-04-21T02:54:39.492Z,73.40
2023-04-21T02:57:06.357Z,73.20
2023-04-21T02:59:33.652Z,73.40
2023-04-21T03:02:00.624Z,73.70
2023-04-21T03:04:27.692Z,73.60
2023-04-21T03:06:54.857Z,73.70
2023-04-21T03:09:21.989Z,73.60
2023-04-21T03:11:48.978Z,73.90
2023-04-21T03:14:15.921Z,73.90
2023-04-21T03:16:42.813Z,74.00
2023-04-21T03:19:09.785Z,74.10
2023-04-21T03:21:38.439Z,73.90
2023-04-21T03:24:07.002Z,73.90
2023-04-21T03:26:34.299Z,73.70
2023-04-21T03:29:01.313Z,74.00
2023-04-21T03:31:28.303Z,74.10
2023-04-21T03:33:55.205Z,74.20
2023-04-21T03:36:22.209Z,74.30
2023-04-21T03:38:49.133Z,74.30
2023-04-21T03:41:17.155Z,74.30
2023-04-21T03:43:44.174Z,74.30
2023-04-21T03:46:21.887Z,74.40
2023-04-21T03:48:49.066Z,74.30
2023-04-21T03:51:15.971Z,74.30
2023-04-21T03:53:42.845Z,74.30
2023-04-21T03:56:10.033Z,74.30
2023-04-21T03:58:37.169Z,74.50
2023-04-21T04:01:07.538Z,74.60
2023-04-21T04:03:34.847Z,74.60
2023-04-21T04:06:04.013Z,74.20
2023-04-21T04:08:31.310Z,74.10
2023-04-21T04:10:58.280Z,74.30
2023-04-21T04:13:27.597Z,74.00
2023-04-21T04:15:54.508Z,74.20
2023-04-21T04:18:21.665Z,74.40
2023-04-21T04:20:48.653Z,74.40
2023-04-21T04:23:15.779Z,74.20
2023-04-21T04:25:43.104Z,74.10
2023-04-21T04:28:10.592Z,73.90
2023-04-21T04:30:37.914Z,74.00
2023-04-21T04:33:05.190Z,74.20
2023-04-21T04:35:32.147Z,74.20
2023-04-21T04:37:59.355Z,74.40
2023-04-21T04:40:26.285Z,74.40
2023-04-21T04:42:53.473Z,74.50
2023-04-21T04:45:22.481Z,74.50
2023-04-21T04:47:50.531Z,74.70
2023-04-21T04:50:17.581Z,74.80
2023-04-21T04:52:46.964Z,74.60
2023-04-21T04:55:14.329Z,74.70
2023-04-21T04:57:41.252Z,74.80
2023-04-21T05:00:11.344Z,75.00
2023-04-21T05:02:39.292Z,74.80
2023-04-21T05:05:07.629Z,75.00
2023-04-21T05:07:34.799Z,75.10
2023-04-21T05:10:02.513Z,74.90
2023-04-21T05:12:29.436Z,74.90
2023-04-21T05:14:56.920Z,74.90
2023-04-21T05:17:23.823Z,74.90
2023-04-21T05:19:50.791Z,74.70
2023-04-21T05:22:17.682Z,74.40
2023-04-21T05:24:44.577Z,74.40
2023-04-21T05:27:11.528Z,74.60
2023-04-21T05:29:38.426Z,74.40
2023-04-21T05:32:06.076Z,74.40
2023-04-21T05:34:33.280Z,74.50
2023-04-21T05:37:00.210Z,74.60
2023-04-21T05:39:30.765Z,74.30
2023-04-21T05:41:58.314Z,74.50
2023-04-21T05:44:25.502Z,74.40
2023-04-21T05:46:56.664Z,74.40
2023-04-21T05:49:24.409Z,74.30
2023-04-21T05:51:51.257Z,74.30
2023-04-21T05:54:18.598Z,74.10
2023-04-21T05:56:47.486Z,74.30
2023-04-21T05:59:14.732Z,74.00
2023-04-21T06:01:42.044Z,74.00
2023-04-21T06:04:09.374Z,73.70
2023-04-21T06:06:37.004Z,73.60
2023-04-21T06:09:04.189Z,73.30
2023-04-21T06:11:33.703Z,73.20
2023-04-21T06:14:01.807Z,73.40
2023-04-21T06:16:29.396Z,73.60
2023-04-21T06:18:58.955Z,73.70
2023-04-21T06:21:26.053Z,73.30
2023-04-21T06:23:53.224Z,72.90
2023-04-21T06:26:20.268Z,72.90
2023-04-21T06:28:47.220Z,72.80
2023-04-21T06:31:15.747Z,72.70
2023-04-21T06:33:43.082Z,72.30
2023-04-21T06:36:10.196Z,72.60
2023-04-21T06:38:37.604Z,72.60
2023-04-21T06:41:04.717Z,72.70
2023-04-21T06:43:31.584Z,73.00
2023-04-21T06:45:58.566Z,72.80
2023-04-21T06:48:26.484Z,72.70
2023-04-21T06:50:54.061Z,72.40
2023-04-21T06:53:22.011Z,72.50
2023-04-21T06:55:49.413Z,72.30
2023-04-21T06:58:18.496Z,72.10
2023-04-21T07:00:47.036Z,71.90
2023-04-21T07:03:14.100Z,71.90
2023-04-21T07:05:41.153Z,72.20
2023-04-21T07:08:08.179Z,72.20
2023-04-21T07:10:35.230Z,72.20
2023-04-21T07:13:03.185Z,72.50
2023-04-21T07:15:30.138Z,72.70
2023-04-21T07:17:58.927Z,72.80
2023-04-21T07:20:26.139Z,72.70
2023-04-21T07:22:53.235Z,72.50
2023-04-21T07:25:20.442Z,72.20
2023-04-21T07:27:47.400Z,72.30
2023-04-21T07:30:14.703Z,72.40
2023-04-21T07:32:42.701Z,72.50
2023-04-21T07:35:09.966Z,72.80
2023-04-21T07:37:36.801Z,73.10
2023-04-21T07:40:04.241Z,73.40
2023-04-21T07:42:31.136Z,73.40
2023-04-21T07:44:58.258Z,73.50
2023-04-21T07:47:25.600Z,73.30
2023-04-21T07:49:52.535Z,73.40
2023-04-21T07:52:19.521Z,73.40
2023-04-21T07:54:46.649Z,73.30
2023-04-21T07:57:13.803Z,73.40
2023-04-21T07:59:40.748Z,73.50
2023-04-21T08:02:08.696Z,73.60
2023-04-21T08:04:36.273Z,73.30
2023-04-21T08:07:05.085Z,72.90
2023-04-21T08:09:33.148Z,73.00
2023-04-21T08:12:00.144Z,73.10
2023-04-21T08:14:28.231Z,73.30
2023-04-21T08:16:56.912Z,73.00
2023-04-21T08:19:24.800Z,72.40
2023-04-21T08:21:51.713Z,72.50
2023-04-21T08:24:18.936Z,72.60
2023-04-21T08:26:46.094Z,72.40
2023-04-21T08:29:14.164Z,72.10
2023-04-21T08:31:41.117Z,72.10
2023-04-21T08:34:08.294Z,71.90
2023-04-21T08:36:35.269Z,71.90
2023-04-21T08:39:02.303Z,71.90
2023-04-21T08:41:29.226Z,71.50
2023-04-21T08:43:56.233Z,71.00
2023-04-21T08:46:23.891Z,70.20
2023-04-21T08:48:51.810Z,69.40
2023-04-21T08:51:24.706Z,69.30
2023-04-21T08:53:52.107Z,69.10
2023-04-21T08:56:19.282Z,68.00
2023-04-21T08:58:46.291Z,67.60
2023-04-21T09:01:13.461Z,66.70
2023-04-21T09:03:40.760Z,65.90
2023-04-21T09:06:09.765Z,66.00
2023-04-21T09:08:44.756Z,67.10
2023-04-21T09:11:15.201Z,66.40
2023-04-21T09:13:43.865Z,66.40
2023-04-21T09:16:22.284Z,66.70
2023-04-21T09:18:50.600Z,65.70
2023-04-21T09:21:19.713Z,65.90
2023-04-21T09:23:51.693Z,65.80
2023-04-21T09:26:22.935Z,65.90
2023-04-21T09:28:51.622Z,65.80
2023-04-21T09:31:21.049Z,65.50
2023-04-21T09:36:23.505Z,64.50
2023-04-21T09:39:20.563Z,64.40
2023-04-21T09:41:45.093Z,64.20
2023-04-21T09:44:12.273Z,63.90
2023-04-21T09:46:44.564Z,63.00
2023-04-21T09:49:16.662Z,62.80
2023-04-21T09:52:10.339Z,62.70
2023-04-21T09:54:34.305Z,62.60
2023-04-21T09:57:04.683Z,61.60
2023-04-21T09:59:42.296Z,61.40
2023-04-21T10:02:12.217Z,61.30
2023-04-21T10:04:42.195Z,61.40
2023-04-21T10:07:11.177Z,61.40
2023-04-21T10:09:49.102Z,60.60
2023-04-21T10:12:17.386Z,60.30
2023-04-21T10:14:44.352Z,60.50
2023-04-21T10:17:11.680Z,60.60
2023-04-21T10:19:49.416Z,60.50
2023-04-21T10:22:30.277Z,60.30
2023-04-21T10:24:58.923Z,60.10
2023-04-21T10:27:37.166Z,59.80
2023-04-21T10:30:26.544Z,59.60
2023-04-21T10:33:04.966Z,57.90
2023-04-21T10:36:05.082Z,57.70
2023-04-21T10:38:42.660Z,58.00
2023-04-21T10:41:46.635Z,57.60
2023-04-21T10:44:14.379Z,57.60
2023-04-21T10:46:46.379Z,57.60
2023-04-21T10:49:25.659Z,57.40
2023-04-21T10:52:02.539Z,56.70
2023-04-21T10:54:41.774Z,56.60
2023-04-21T10:57:11.445Z,56.80
2023-04-21T10:59:38.330Z,56.50
2023-04-21T11:02:11.953Z,56.30
2023-04-21T11:04:47.904Z,55.90
2023-04-21T11:07:18.414Z,55.90
2023-04-21T11:09:47.617Z,56.10
2023-04-21T11:12:18.225Z,56.40
2023-04-21T11:14:49.864Z,56.80
2023-04-21T11:17:20.831Z,56.70
2023-04-21T11:19:57.617Z,56.50
2023-04-21T11:22:26.496Z,55.90
2023-04-21T11:24:58.168Z,55.30
2023-04-21T11:27:30.180Z,54.70
2023-04-21T11:29:58.112Z,54.50
2023-04-21T11:32:25.586Z,54.00
2023-04-21T11:34:52.873Z,53.90
2023-04-21T11:37:27.023Z,54.00
2023-04-21T11:39:58.805Z,54.30
2023-04-21T11:42:25.851Z,54.20
2023-04-21T11:44:56.606Z,54.30
2023-04-21T11:47:26.455Z,54.50
2023-04-21T11:49:58.932Z,54.40
2023-04-21T11:52:30.955Z,54.50
2023-04-21T11:55:06.739Z,54.20
2023-04-21T11:57:34.428Z,54.10
2023-04-21T12:00:12.128Z,54.40
2023-04-21T12:02:39.541Z,54.00
2023-04-21T12:05:11.873Z,53.90
2023-04-21T12:07:42.641Z,54.20
2023-04-21T12:10:14.502Z,54.40
2023-04-21T12:12:42.755Z,54.30
2023-04-21T12:15:17.555Z,55.00
2023-04-21T12:17:49.286Z,53.70
2023-04-21T12:20:21.269Z,53.40
2023-04-21T12:22:48.679Z,53.20
2023-04-21T12:25:15.758Z,52.20
2023-04-21T12:27:54.102Z,52.00
2023-04-21T12:30:22.008Z,51.80
2023-04-21T12:32:49.159Z,51.90
2023-04-21T12:35:16.366Z,51.60
2023-04-21T12:37:44.497Z,51.60
2023-04-21T12:40:11.526Z,51.80
2023-04-21T12:42:38.624Z,52.10
2023-04-21T12:45:06.519Z,52.10
2023-04-21T12:47:34.116Z,52.60
2023-04-21T12:50:01.320Z,54.10
2023-04-21T12:52:28.272Z,55.40
2023-04-21T12:54:55.269Z,56.10
2023-04-21T12:57:22.263Z,56.60
2023-04-21T12:59:49.153Z,57.00
2023-04-21T13:02:16.825Z,57.10
2023-04-21T13:04:43.948Z,57.20
2023-04-21T13:07:11.106Z,56.90
2023-04-21T13:09:38.439Z,56.90
2023-04-21T13:12:05.368Z,57.30
2023-04-21T13:14:32.434Z,57.80
2023-04-21T13:16:59.493Z,58.00
2023-04-21T13:19:26.685Z,58.50
2023-04-21T13:21:54.310Z,59.30
2023-04-21T13:24:22.165Z,59.50
2023-04-21T13:26:49.152Z,59.60
2023-04-21T13:29:16.155Z,58.90
2023-04-21T13:31:43.123Z,58.30
2023-04-21T13:34:10.276Z,58.20
2023-04-21T13:36:37.286Z,57.60
2023-04-21T13:39:05.675Z,57.70
2023-04-21T13:41:32.783Z,58.30
2023-04-21T13:43:59.788Z,58.90
2023-04-21T13:46:26.873Z,59.50
2023-04-21T13:48:54.435Z,59.90
2023-04-21T13:51:21.342Z,60.10
2023-04-21T13:53:48.976Z,60.60
2023-04-21T13:56:16.870Z,60.90
2023-04-21T13:58:44.086Z,61.50
2023-04-21T14:01:14.661Z,62.00
2023-04-21T14:03:42.242Z,62.70
2023-04-21T14:06:09.377Z,63.00
2023-04-21T14:08:36.371Z,63.10
2023-04-21T14:11:03.948Z,63.10
2023-04-21T14:13:39.580Z,63.40
2023-04-21T14:16:11.974Z,63.70
2023-04-21T14:18:44.310Z,63.90
2023-04-21T14:21:14.024Z,64.30
2023-04-21T14:23:40.823Z,64.30
2023-04-21T14:26:07.817Z,64.30
2023-04-21T14:28:34.614Z,65.10
2023-04-21T14:31:01.835Z,64.30
2023-04-21T14:33:29.692Z,64.10
2023-04-21T14:35:56.792Z,63.00
2023-04-21T14:38:23.815Z,62.80
2023-04-21T14:40:54.259Z,62.50
2023-04-21T14:43:21.699Z,62.20
2023-04-21T14:45:48.925Z,61.80
2023-04-21T14:48:16.147Z,62.10
2023-04-21T14:50:43.665Z,62.30
2023-04-21T14:53:10.985Z,62.10
2023-04-21T14:55:37.818Z,61.40
2023-04-21T14:58:04.698Z,61.50
2023-04-21T15:00:31.909Z,61.70
2023-04-21T15:02:59.287Z,61.40
2023-04-21T15:05:26.290Z,61.30
2023-04-21T15:07:53.184Z,61.20
2023-04-21T15:10:20.242Z,61.00
2023-04-21T15:12:47.164Z,60.90
2023-04-21T15:15:14.149Z,60.30
2023-04-21T15:17:41.148Z,59.90
2023-04-21T15:20:10.169Z,59.40
2023-04-21T15:22:37.283Z,59.30
2023-04-21T15:25:04.556Z,58.80
2023-04-21T15:27:31.536Z,58.60
2023-04-21T15:29:58.843Z,58.10
2023-04-21T15:32:25.983Z,57.80
2023-04-21T15:37:41.432Z,57.20
2023-04-21T15:40:24.172Z,56.60
2023-04-21T15:42:51.264Z,56.70
2023-04-21T15:45:18.535Z,56.20
2023-04-21T15:47:45.706Z,56.70
2023-04-21T15:50:12.740Z,56.90
2023-04-21T15:52:43.264Z,56.80
2023-04-21T15:55:13.854Z,57.00
2023-04-21T15:57:40.862Z,57.10
2023-04-21T16:00:10.215Z,57.00
2023-04-21T16:02:37.646Z,56.80
2023-04-21T16:05:05.099Z,56.50
2023-04-21T16:07:32.318Z,56.00
2023-04-21T16:09:59.250Z,55.30
2023-04-21T16:12:26.434Z,54.70
2023-04-21T16:14:59.547Z,54.30
2023-04-21T16:17:31.991Z,54.40
2023-04-21T16:19:58.988Z,54.30
2023-04-21T16:22:26.053Z,54.30
2023-04-21T16:24:53.621Z,54.30
2023-04-21T16:27:20.926Z,54.30
2023-04-21T16:29:47.856Z,54.20
2023-04-21T16:32:14.726Z,53.70
2023-04-21T16:34:42.412Z,53.20
2023-04-21T16:37:09.709Z,52.70
2023-04-21T16:39:36.660Z,51.70
2023-04-21T16:42:03.654Z,51.00
2023-04-21T16:44:31.885Z,50.70
2023-04-21T16:46:58.735Z,50.50
2023-04-21T16:49:25.656Z,50.20
2023-04-21T16:51:52.686Z,50.00
2023-04-21T16:54:19.599Z,50.10
2023-04-21T16:56:46.607Z,50.30
2023-04-21T16:59:14.072Z,50.30
2023-04-21T17:01:41.036Z,50.50
2023-04-21T17:04:08.222Z,50.70
2023-04-21T17:06:35.359Z,51.10
2023-04-21T17:09:02.334Z,51.60
2023-04-21T17:11:31.377Z,52.20
2023-04-21T17:13:58.422Z,52.50
2023-04-21T17:16:25.773Z,53.20
2023-04-21T17:18:52.887Z,53.60
2023-04-21T17:21:19.713Z,54.20
2023-04-21T17:23:46.913Z,54.60
2023-04-21T17:26:13.796Z,54.90
2023-04-21T17:28:40.956Z,55.30
2023-04-21T17:31:15.700Z,54.80
2023-04-21T17:33:44.605Z,54.80
2023-04-21T17:36:12.311Z,55.00
2023-04-21T17:38:39.732Z,55.10
2023-04-21T17:41:07.717Z,55.10
2023-04-21T17:43:34.619Z,55.20
2023-04-21T17:46:01.633Z,55.70
2023-04-21T17:48:28.616Z,56.00
2023-04-21T17:50:55.739Z,56.00
2023-04-21T17:53:22.582Z,56.20
2023-04-21T17:55:50.095Z,56.50
2023-04-21T17:58:17.035Z,56.70
2023-04-21T18:00:44.032Z,56.70
2023-04-21T18:03:11.529Z,57.00
2023-04-21T18:05:39.127Z,57.40
2023-04-21T18:08:06.153Z,57.90
2023-04-21T18:10:33.021Z,58.10
2023-04-21T18:12:59.981Z,58.60
2023-04-21T18:15:26.820Z,59.00
2023-04-21T18:17:54.044Z,59.30
2023-04-21T18:20:21.018Z,59.20
2023-04-21T18:22:49.044Z,59.40
2023-04-21T18:25:20.243Z,59.40
2023-04-21T18:27:51.461Z,59.70
2023-04-21T18:30:18.306Z,59.90
2023-04-21T18:32:45.429Z,60.20
2023-04-21T18:35:12.369Z,60.20
2023-04-21T18:37:39.275Z,60.90
2023-04-21T18:40:06.801Z,60.70
2023-04-21T18:42:33.840Z,60.50
2023-04-21T18:45:03.980Z,60.70
2023-04-21T18:47:31.678Z,61.40
2023-04-21T18:49:58.540Z,61.60
2023-04-21T18:52:25.667Z,61.20
2023-04-21T18:54:52.476Z,61.50
2023-04-21T18:57:19.417Z,61.70
2023-04-21T18:59:48.681Z,61.90
2023-04-21T19:02:16.388Z,62.30
2023-04-21T19:04:46.414Z,62.50
2023-04-21T19:07:15.664Z,62.40
2023-04-21T19:09:46.702Z,62.40
2023-04-21T19:12:14.458Z,62.30
2023-04-21T19:14:47.046Z,62.70
2023-04-21T19:17:15.005Z,62.70
2023-04-21T19:19:42.329Z,62.70
2023-04-21T19:22:09.290Z,62.70
2023-04-21T19:24:36.326Z,63.10
2023-04-21T19:27:05.472Z,63.20
2023-04-21T19:29:32.621Z,63.20
2023-04-21T19:31:59.688Z,63.50
2023-04-21T19:34:26.945Z,63.40
2023-04-21T19:36:53.902Z,63.60
2023-04-21T19:39:20.887Z,63.60
2023-04-21T19:41:47.824Z,63.70
2023-04-21T19:44:14.712Z,63.90
2023-04-21T19:46:42.793Z,64.30
2023-04-21T19:49:13.231Z,64.50
2023-04-21T19:51:41.311Z,64.40
2023-04-21T19:54:12.162Z,64.40
2023-04-21T19:56:40.421Z,64.30
2023-04-21T19:59:07.810Z,64.50
2023-04-21T20:01:34.811Z,64.60
2023-04-21T20:04:02.438Z,64.80
2023-04-21T20:06:29.466Z,64.90
2023-04-21T20:08:56.738Z,64.80
2023-04-21T20:11:23.836Z,64.70
2023-04-21T20:13:50.851Z,64.40
2023-04-21T20:16:18.173Z,64.70
2023-04-21T20:18:45.281Z,64.90
2023-04-21T20:21:12.499Z,64.90
2023-04-21T20:23:39.383Z,64.80
2023-04-21T20:26:06.206Z,65.00
2023-04-21T20:28:33.213Z,65.40
2023-04-21T20:31:00.205Z,65.20
2023-04-21T20:33:28.152Z,65.50
2023-04-21T20:35:55.548Z,65.30
2023-04-21T20:38:26.503Z,65.20
2023-04-21T20:40:53.481Z,65.40
2023-04-21T20:43:21.342Z,65.30
2023-04-21T20:45:50.310Z,65.70
2023-04-21T20:48:17.166Z,65.40
2023-04-21T20:50:46.004Z,65.20
2023-04-21T20:53:13.725Z,65.30
2023-04-21T20:55:40.730Z,65.20
2023-04-21T20:58:07.652Z,65.20
2023-04-21T21:00:34.847Z,65.50
2023-04-21T21:03:02.241Z,65.70
2023-04-21T21:05:30.384Z,65.60
2023-04-21T21:07:57.436Z,65.70
2023-04-21T21:10:24.483Z,66.00
2023-04-21T21:12:52.113Z,65.60
2023-04-21T21:15:19.002Z,66.10
2023-04-21T21:17:46.146Z,65.90
2023-04-21T21:20:12.996Z,65.80
2023-04-21T21:22:39.894Z,66.00
2023-04-21T21:25:07.003Z,65.40
2023-04-21T21:27:33.970Z,65.40
2023-04-21T21:30:00.979Z,65.80
2023-04-21T21:32:27.962Z,65.70
2023-04-21T21:34:54.989Z,65.90
2023-04-21T21:37:23.388Z,65.90
2023-04-21T21:39:50.729Z,66.10
2023-04-21T21:42:17.615Z,66.20
2023-04-21T21:44:44.458Z,66.10
2023-04-21T21:47:11.340Z,66.00
2023-04-21T21:49:39.824Z,66.00
2023-04-21T21:52:06.830Z,66.10
2023-04-21T21:54:33.743Z,66.10
2023-04-21T21:57:01.320Z,66.20
2023-04-21T21:59:28.263Z,66.30
2023-04-21T22:01:55.464Z,66.30
2023-04-21T22:04:22.591Z,66.60
2023-04-21T22:06:49.527Z,66.60
2023-04-21T22:09:16.410Z,66.70
2023-04-21T22:11:43.287Z,66.50
2023-04-21T22:14:21.645Z,66.40
2023-04-21T22:16:50.656Z,66.70
2023-04-21T22:19:20.428Z,66.60
2023-04-21T22:21:47.696Z,66.60
2023-04-21T22:24:14.844Z,66.50
2023-04-21T22:26:43.027Z,66.30
2023-04-21T22:29:10.202Z,66.60
2023-04-21T22:31:38.055Z,66.90
2023-04-21T22:34:05.180Z,66.80
2023-04-21T22:36:32.689Z,66.90
2023-04-21T22:39:00.118Z,66.80
2023-04-21T22:41:27.591Z,67.40
2023-04-21T22:43:54.634Z,66.30
2023-04-21T22:46:21.603Z,66.40
2023-04-21T22:48:48.675Z,66.70
2023-04-21T22:51:15.593Z,66.50
2023-04-21T22:53:42.433Z,66.60
2023-04-21T22:56:09.530Z,66.60
2023-04-21T22:58:36.466Z,67.30
2023-04-21T23:01:03.525Z,67.00
2023-04-21T23:03:31.210Z,67.00
2023-04-21T23:05:58.951Z,67.00
2023-04-21T23:08:25.900Z,67.20
2023-04-21T23:10:52.951Z,67.20
2023-04-21T23:13:19.743Z,66.90
2023-04-21T23:15:46.618Z,66.70
2023-04-21T23:18:13.517Z,67.50
2023-04-21T23:20:40.520Z,66.50
2023-04-21T23:23:07.596Z,66.60
2023-04-21T23:25:34.638Z,66.80
2023-04-21T23:28:01.478Z,66.80
2023-04-21T23:30:28.431Z,66.50
2023-04-21T23:32:55.891Z,66.40
2023-04-21T23:35:22.822Z,66.30
2023-04-21T23:37:49.797Z,66.40
2023-04-21T23:40:16.653Z,66.40
2023-04-21T23:42:47.433Z,66.60
2023-04-21T23:45:15.143Z,66.60
2023-04-21T23:47:42.248Z,66.80
2023-04-21T23:50:09.687Z,66.80
2023-04-21T23:52:36.530Z,66.80
2023-04-21T23:55:03.548Z,67.00
2023-04-21T23:57:30.517Z,67.20
2023-04-21T23:59:57.322Z,67.30
